sensor_id;sensor_type;location;lat;lon;timestamp;pressure;altitude;pressure_sealevel;temperature;humidity
64602;BME280;68371;42.630;23.192;2024-03-23T00:51:41;92349.75;;;1.83;73.76
64602;BME280;68371;42.630;23.192;2024-03-23T00:54:07;92344.31;;;1.85;73.49
64602;BME280;68371;42.630;23.192;2024-03-23T00:56:34;92343.25;;;1.86;73.05
64602;BME280;68371;42.630;23.192;2024-03-23T00:58:59;92342.97;;;1.87;73.17
64602;BME280;68371;42.630;23.192;2024-03-23T01:01:26;92343.25;;;1.86;73.55
64602;BME280;68371;42.630;23.192;2024-03-23T01:03:52;92349.97;;;1.87;73.23
64602;BME280;68371;42.630;23.192;2024-03-23T01:06:19;92345.28;;;1.89;73.16
64602;BME280;68371;42.630;23.192;2024-03-23T01:08:46;92343.25;;;1.86;73.81
64602;BME280;68371;42.630;23.192;2024-03-23T01:11:12;92341.72;;;1.85;73.38
64602;BME280;68371;42.630;23.192;2024-03-23T01:13:38;92339.19;;;1.79;73.22
64602;BME280;68371;42.630;23.192;2024-03-23T01:16:05;92336.09;;;1.77;72.56
64602;BME280;68371;42.630;23.192;2024-03-23T01:18:31;92336.03;;;1.83;72.78
64602;BME280;68371;42.630;23.192;2024-03-23T01:20:58;92337.34;;;1.80;72.88
64602;BME280;68371;42.630;23.192;2024-03-23T01:23:24;92342.13;;;1.73;72.97
64602;BME280;68371;42.630;23.192;2024-03-23T01:25:54;92341.28;;;1.77;72.65
64602;BME280;68371;42.630;23.192;2024-03-23T01:28:20;92341.16;;;1.69;72.11
64602;BME280;68371;42.630;23.192;2024-03-23T01:30:48;92302.53;;;1.34;71.96
64602;BME280;68371;42.630;23.192;2024-03-23T01:33:14;92340.66;;;1.67;72.33
64602;BME280;68371;42.630;23.192;2024-03-23T01:35:41;92344.03;;;1.67;72.28
64602;BME280;68371;42.630;23.192;2024-03-23T01:38:06;92334.78;;;1.61;72.10
64602;BME280;68371;42.630;23.192;2024-03-23T01:40:33;92343.69;;;1.55;71.67
64602;BME280;68371;42.630;23.192;2024-03-23T01:43:03;92334.84;;;1.56;70.89
64602;BME280;68371;42.630;23.192;2024-03-23T01:45:31;92333.09;;;1.51;70.86
64602;BME280;68371;42.630;23.192;2024-03-23T01:47:57;92335.16;;;1.54;70.71
64602;BME280;68371;42.630;23.192;2024-03-23T01:50:24;92331.28;;;1.52;71.21
64602;BME280;68371;42.630;23.192;2024-03-23T01:52:50;92330.47;;;1.56;71.46
64602;BME280;68371;42.630;23.192;2024-03-23T01:55:18;92334.31;;;1.59;70.70
64602;BME280;68371;42.630;23.192;2024-03-23T01:57:43;92335.41;;;1.53;70.43
64602;BME280;68371;42.630;23.192;2024-03-23T02:00:13;92330.44;;;1.37;70.75
64602;BME280;68371;42.630;23.192;2024-03-23T02:02:42;92337.16;;;1.38;72.06
64602;BME280;68371;42.630;23.192;2024-03-23T02:05:09;92338.00;;;1.34;71.55
64602;BME280;68371;42.630;23.192;2024-03-23T02:07:35;92333.50;;;1.39;72.19
64602;BME280;68371;42.630;23.192;2024-03-23T02:10:02;92329.25;;;1.30;71.87
64602;BME280;68371;42.630;23.192;2024-03-23T02:12:28;92335.59;;;1.18;71.54
64602;BME280;68371;42.630;23.192;2024-03-23T02:14:55;92337.97;;;1.15;72.17
64602;BME280;68371;42.630;23.192;2024-03-23T02:17:22;92338.41;;;1.22;72.58
64602;BME280;68371;42.630;23.192;2024-03-23T02:19:49;92328.13;;;1.17;72.25
64602;BME280;68371;42.630;23.192;2024-03-23T02:22:15;92338.69;;;1.20;72.87
64602;BME280;68371;42.630;23.192;2024-03-23T02:24:43;92343.59;;;1.22;72.82
64602;BME280;68371;42.630;23.192;2024-03-23T02:27:09;92337.22;;;1.14;72.38
64602;BME280;68371;42.630;23.192;2024-03-23T02:29:36;92340.28;;;1.16;72.96
64602;BME280;68371;42.630;23.192;2024-03-23T02:32:02;92343.50;;;1.08;72.74
64602;BME280;68371;42.630;23.192;2024-03-23T02:34:29;92345.09;;;1.04;72.30
64602;BME280;68371;42.630;23.192;2024-03-23T02:36:54;92350.75;;;1.06;72.07
64602;BME280;68371;42.630;23.192;2024-03-23T02:39:21;92330.34;;;1.05;71.68
64602;BME280;68371;42.630;23.192;2024-03-23T02:41:49;92333.69;;;1.05;72.29
64602;BME280;68371;42.630;23.192;2024-03-23T02:44:16;92330.81;;;1.07;72.42
64602;BME280;68371;42.630;23.192;2024-03-23T02:46:41;92333.69;;;1.05;72.63
64602;BME280;68371;42.630;23.192;2024-03-23T02:49:08;92332.09;;;1.09;72.60
64602;BME280;68371;42.630;23.192;2024-03-23T02:51:34;92339.53;;;1.16;72.53
64602;BME280;68371;42.630;23.192;2024-03-23T02:54:00;92325.03;;;1.15;71.78
64602;BME280;68371;42.630;23.192;2024-03-23T02:56:26;92332.56;;;1.11;71.59
64602;BME280;68371;42.630;23.192;2024-03-23T02:58:54;92332.09;;;1.09;72.21
64602;BME280;68371;42.630;23.192;2024-03-23T03:01:20;92328.25;;;1.07;71.85
64602;BME280;68371;42.630;23.192;2024-03-23T03:03:47;92325.44;;;1.03;71.90
64602;BME280;68371;42.630;23.192;2024-03-23T03:06:22;92325.13;;;1.10;72.10
64602;BME280;68371;42.630;23.192;2024-03-23T03:08:50;92326.16;;;1.09;71.59
64602;BME280;68371;42.630;23.192;2024-03-23T03:11:16;92320.06;;;0.99;71.31
64602;BME280;68371;42.630;23.192;2024-03-23T03:13:42;92323.91;;;1.02;71.90
64602;BME280;68371;42.630;23.192;2024-03-23T03:16:10;92335.09;;;0.97;71.83
64602;BME280;68371;42.630;23.192;2024-03-23T03:18:37;92324.44;;;0.99;71.93
64602;BME280;68371;42.630;23.192;2024-03-23T03:21:03;92320.75;;;1.05;71.76
64602;BME280;68371;42.630;23.192;2024-03-23T03:23:31;92318.25;;;1.00;72.83
64602;BME280;68371;42.630;23.192;2024-03-23T03:25:56;92331.78;;;0.92;72.34
64602;BME280;68371;42.630;23.192;2024-03-23T03:28:23;92330.56;;;0.84;72.58
64602;BME280;68371;42.630;23.192;2024-03-23T03:30:49;92324.16;;;0.82;72.46
64602;BME280;68371;42.630;23.192;2024-03-23T03:33:18;92327.50;;;0.82;73.13
64602;BME280;68371;42.630;23.192;2024-03-23T03:35:43;92329.84;;;0.78;72.60
64602;BME280;68371;42.630;23.192;2024-03-23T03:38:11;92334.53;;;0.76;72.92
64602;BME280;68371;42.630;23.192;2024-03-23T03:40:36;92327.88;;;0.70;73.22
64602;BME280;68371;42.630;23.192;2024-03-23T03:43:03;92330.53;;;0.65;73.95
64602;BME280;68371;42.630;23.192;2024-03-23T03:45:29;92332.78;;;0.72;74.43
64602;BME280;68371;42.630;23.192;2024-03-23T03:47:56;92325.78;;;0.72;73.30
64602;BME280;68371;42.630;23.192;2024-03-23T03:50:23;92331.41;;;0.79;73.92
64602;BME280;68371;42.630;23.192;2024-03-23T03:52:50;92303.69;;;0.61;74.18
64602;BME280;68371;42.630;23.192;2024-03-23T03:55:16;92328.59;;;0.76;73.50
64602;BME280;68371;42.630;23.192;2024-03-23T03:57:43;92328.88;;;0.74;73.57
64602;BME280;68371;42.630;23.192;2024-03-23T04:00:10;92329.09;;;0.78;73.88
64602;BME280;68371;42.630;23.192;2024-03-23T04:02:37;92327.34;;;0.73;73.89
64602;BME280;68371;42.630;23.192;2024-03-23T04:05:03;92330.19;;;0.72;73.48
64602;BME280;68371;42.630;23.192;2024-03-23T04:07:31;92334.81;;;0.75;73.36
64602;BME280;68371;42.630;23.192;2024-03-23T04:09:57;92330.44;;;0.75;73.43
64602;BME280;68371;42.630;23.192;2024-03-23T04:12:24;92328.34;;;0.77;73.84
64602;BME280;68371;42.630;23.192;2024-03-23T04:14:49;92330.47;;;0.70;73.80
64602;BME280;68371;42.630;23.192;2024-03-23T04:17:16;92334.03;;;0.74;74.03
64602;BME280;68371;42.630;23.192;2024-03-23T04:19:42;92337.69;;;0.73;74.72
64602;BME280;68371;42.630;23.192;2024-03-23T04:22:08;92335.88;;;0.74;74.03
64602;BME280;68371;42.630;23.192;2024-03-23T04:24:35;92334.03;;;0.74;73.94
64602;BME280;68371;42.630;23.192;2024-03-23T04:27:02;92332.19;;;0.80;74.50
64602;BME280;68371;42.630;23.192;2024-03-23T04:29:28;92331.91;;;0.82;75.05
64602;BME280;68371;42.630;23.192;2024-03-23T04:31:55;92334.50;;;0.82;75.75
64602;BME280;68371;42.630;23.192;2024-03-23T04:34:21;92334.03;;;0.74;75.65
64602;BME280;68371;42.630;23.192;2024-03-23T04:36:48;92336.34;;;0.76;75.77
64602;BME280;68371;42.630;23.192;2024-03-23T04:39:14;92338.09;;;0.80;75.67
64602;BME280;68371;42.630;23.192;2024-03-23T04:41:42;92333.13;;;0.65;75.50
64602;BME280;68371;42.630;23.192;2024-03-23T04:44:09;92333.44;;;0.58;76.83
64602;BME280;68371;42.630;23.192;2024-03-23T04:46:35;92315.41;;;0.53;77.53
64602;BME280;68371;42.630;23.192;2024-03-23T04:49:02;92331.34;;;0.60;77.24
64602;BME280;68371;42.630;23.192;2024-03-23T04:51:35;92337.56;;;0.59;77.19
64602;BME280;68371;42.630;23.192;2024-03-23T04:54:01;92343.72;;;0.64;75.96
64602;BME280;68371;42.630;23.192;2024-03-23T04:56:27;92339.31;;;0.64;76.42
64602;BME280;68371;42.630;23.192;2024-03-23T04:58:56;92346.31;;;0.64;76.70
64602;BME280;68371;42.630;23.192;2024-03-23T05:01:26;92338.34;;;0.60;77.34
64602;BME280;68371;42.630;23.192;2024-03-23T05:03:53;92337.06;;;0.57;78.36
64602;BME280;68371;42.630;23.192;2024-03-23T05:06:20;92335.47;;;0.62;77.76
64602;BME280;68371;42.630;23.192;2024-03-23T05:08:45;92338.22;;;0.70;77.74
64602;BME280;68371;42.630;23.192;2024-03-23T05:11:12;92340.03;;;0.70;78.46
64602;BME280;68371;42.630;23.192;2024-03-23T05:13:38;92337.19;;;0.71;78.41
64602;BME280;68371;42.630;23.192;2024-03-23T05:16:06;92337.69;;;0.73;77.82
64602;BME280;68371;42.630;23.192;2024-03-23T05:18:32;92335.28;;;0.77;76.97
64602;BME280;68371;42.630;23.192;2024-03-23T05:20:59;92334.50;;;0.82;77.99
64602;BME280;68371;42.630;23.192;2024-03-23T05:23:24;92333.66;;;0.86;77.70
64602;BME280;68371;42.630;23.192;2024-03-23T05:25:52;92333.63;;;0.91;78.42
64602;BME280;68371;42.630;23.192;2024-03-23T05:28:18;92327.88;;;0.94;78.57
64602;BME280;68371;42.630;23.192;2024-03-23T05:30:50;92325.94;;;1.05;78.83
64602;BME280;68371;42.630;23.192;2024-03-23T05:33:17;92329.19;;;1.16;78.42
64602;BME280;68371;42.630;23.192;2024-03-23T05:35:44;92331.41;;;1.23;78.05
64602;BME280;68371;42.630;23.192;2024-03-23T05:38:10;92324.84;;;1.30;78.61
64602;BME280;68371;42.630;23.192;2024-03-23T05:40:36;92320.72;;;1.29;78.91
64602;BME280;68371;42.630;23.192;2024-03-23T05:43:05;92330.25;;;1.34;79.40
64602;BME280;68371;42.630;23.192;2024-03-23T05:45:32;92321.63;;;1.38;79.18
64602;BME280;68371;42.630;23.192;2024-03-23T05:47:58;92328.56;;;1.43;79.15
64602;BME280;68371;42.630;23.192;2024-03-23T05:50:26;92331.56;;;1.50;79.12
64602;BME280;68371;42.630;23.192;2024-03-23T05:52:53;92329.19;;;1.54;78.83
64602;BME280;68371;42.630;23.192;2024-03-23T05:55:19;92325.03;;;1.72;78.72
64602;BME280;68371;42.630;23.192;2024-03-23T05:57:45;92328.41;;;1.72;78.58
64602;BME280;68371;42.630;23.192;2024-03-23T06:00:12;92317.50;;;1.75;79.10
64602;BME280;68371;42.630;23.192;2024-03-23T06:02:41;92325.31;;;1.89;79.54
64602;BME280;68371;42.630;23.192;2024-03-23T06:05:09;92320.25;;;1.98;79.88
64602;BME280;68371;42.630;23.192;2024-03-23T06:07:36;92318.25;;;2.09;79.71
64602;BME280;68371;42.630;23.192;2024-03-23T06:10:04;92322.16;;;2.25;80.19
64602;BME280;68371;42.630;23.192;2024-03-23T06:12:30;92314.97;;;2.36;79.49
64602;BME280;68371;42.630;23.192;2024-03-23T06:14:57;92316.81;;;2.49;80.11
64602;BME280;68371;42.630;23.192;2024-03-23T06:17:22;92317.63;;;2.64;80.36
64602;BME280;68371;42.630;23.192;2024-03-23T06:19:49;92313.28;;;2.73;80.33
64602;BME280;68371;42.630;23.192;2024-03-23T06:22:15;92310.09;;;2.90;80.98
64602;BME280;68371;42.630;23.192;2024-03-23T06:24:44;92309.13;;;3.13;79.54
64602;BME280;68371;42.630;23.192;2024-03-23T06:27:10;92306.72;;;3.31;79.96
64602;BME280;68371;42.630;23.192;2024-03-23T06:29:36;92310.50;;;3.61;79.10
64602;BME280;68371;42.630;23.192;2024-03-23T06:32:03;92310.53;;;3.70;79.17
64602;BME280;68371;42.630;23.192;2024-03-23T06:34:29;92305.59;;;3.82;78.44
64602;BME280;68371;42.630;23.192;2024-03-23T06:36:56;92306.00;;;3.98;77.86
64602;BME280;68371;42.630;23.192;2024-03-23T06:39:22;92312.22;;;4.11;77.70
64602;BME280;68371;42.630;23.192;2024-03-23T06:41:53;92308.13;;;4.18;78.02
64602;BME280;68371;42.630;23.192;2024-03-23T06:44:19;92306.41;;;4.36;78.67
64602;BME280;68371;42.630;23.192;2024-03-23T06:46:46;92306.91;;;4.47;78.86
64602;BME280;68371;42.630;23.192;2024-03-23T06:49:14;92306.19;;;4.64;78.60
64602;BME280;68371;42.630;23.192;2024-03-23T06:51:41;92313.75;;;4.74;77.80
64602;BME280;68371;42.630;23.192;2024-03-23T06:54:07;92309.84;;;4.94;77.52
64602;BME280;68371;42.630;23.192;2024-03-23T06:56:33;92307.88;;;5.00;77.20
64602;BME280;68371;42.630;23.192;2024-03-23T06:59:00;92306.41;;;5.25;76.64
64602;BME280;68371;42.630;23.192;2024-03-23T07:01:27;92301.69;;;5.36;76.97
64602;BME280;68371;42.630;23.192;2024-03-23T07:03:54;92300.31;;;5.47;76.65
64602;BME280;68371;42.630;23.192;2024-03-23T07:06:21;92297.72;;;5.56;76.30
64602;BME280;68371;42.630;23.192;2024-03-23T07:08:46;92305.84;;;5.72;75.39
64602;BME280;68371;42.630;23.192;2024-03-23T07:11:18;92300.16;;;5.87;73.73
64602;BME280;68371;42.630;23.192;2024-03-23T07:13:45;92293.25;;;5.91;74.89
64602;BME280;68371;42.630;23.192;2024-03-23T07:16:13;92299.41;;;6.13;73.89
64602;BME280;68371;42.630;23.192;2024-03-23T07:18:39;92285.13;;;6.19;73.65
64602;BME280;68371;42.630;23.192;2024-03-23T07:21:06;92290.16;;;6.41;73.02
64602;BME280;68371;42.630;23.192;2024-03-23T07:23:32;92293.03;;;6.49;72.64
64602;BME280;68371;42.630;23.192;2024-03-23T07:25:59;92289.63;;;6.66;71.98
64602;BME280;68371;42.630;23.192;2024-03-23T07:28:25;92289.59;;;6.74;72.38
64602;BME280;68371;42.630;23.192;2024-03-23T07:31:03;92283.88;;;6.81;71.44
64602;BME280;68371;42.630;23.192;2024-03-23T07:33:30;92279.78;;;7.01;70.96
64602;BME280;68371;42.630;23.192;2024-03-23T07:35:58;92283.81;;;6.98;70.23
64602;BME280;68371;42.630;23.192;2024-03-23T07:38:26;92273.63;;;7.06;70.13
64602;BME280;68371;42.630;23.192;2024-03-23T07:41:02;92282.84;;;7.03;69.65
64602;BME280;68371;42.630;23.192;2024-03-23T07:43:29;92273.06;;;7.21;68.92
64602;BME280;68371;42.630;23.192;2024-03-23T07:45:55;92284.72;;;7.32;67.97
64602;BME280;68371;42.630;23.192;2024-03-23T07:48:22;92275.81;;;7.54;67.84
64602;BME280;68371;42.630;23.192;2024-03-23T07:51:00;92279.25;;;7.67;67.18
64602;BME280;68371;42.630;23.192;2024-03-23T07:53:27;92275.22;;;7.70;65.87
64602;BME280;68371;42.630;23.192;2024-03-23T07:55:55;92274.13;;;7.92;64.92
64602;BME280;68371;42.630;23.192;2024-03-23T07:58:21;92279.91;;;7.97;64.52
64602;BME280;68371;42.630;23.192;2024-03-23T08:00:47;92279.75;;;8.15;64.77
64602;BME280;68371;42.630;23.192;2024-03-23T08:03:14;92272.50;;;8.33;62.98
64602;BME280;68371;42.630;23.192;2024-03-23T08:05:40;92280.09;;;8.47;61.69
64602;BME280;68371;42.630;23.192;2024-03-23T08:08:08;92278.69;;;8.49;60.54
64602;BME280;68371;42.630;23.192;2024-03-23T08:10:34;92282.19;;;8.53;61.28
64602;BME280;68371;42.630;23.192;2024-03-23T08:13:00;92274.34;;;8.66;61.41
64602;BME280;68371;42.630;23.192;2024-03-23T08:15:26;92265.97;;;8.85;57.23
64602;BME280;68371;42.630;23.192;2024-03-23T08:17:53;92271.53;;;8.95;58.01
64602;BME280;68371;42.630;23.192;2024-03-23T08:20:18;92265.66;;;8.86;57.62
64602;BME280;68371;42.630;23.192;2024-03-23T08:22:45;92270.56;;;8.88;57.09
64602;BME280;68371;42.630;23.192;2024-03-23T08:25:12;92277.53;;;8.83;55.62
64602;BME280;68371;42.630;23.192;2024-03-23T08:27:39;92253.19;;;8.71;56.76
64602;BME280;68371;42.630;23.192;2024-03-23T08:30:05;92266.53;;;9.02;55.15
64602;BME280;68371;42.630;23.192;2024-03-23T08:32:32;92269.47;;;9.13;55.00
64602;BME280;68371;42.630;23.192;2024-03-23T08:34:58;92263.22;;;9.18;54.81
64602;BME280;68371;42.630;23.192;2024-03-23T08:37:25;92253.84;;;9.29;53.14
64602;BME280;68371;42.630;23.192;2024-03-23T08:39:51;92256.19;;;9.47;51.30
64602;BME280;68371;42.630;23.192;2024-03-23T08:42:19;92261.84;;;9.61;52.71
64602;BME280;68371;42.630;23.192;2024-03-23T08:44:46;92256.56;;;9.45;51.46
64602;BME280;68371;42.630;23.192;2024-03-23T08:47:15;92249.78;;;9.44;51.04
64602;BME280;68371;42.630;23.192;2024-03-23T08:49:40;92260.81;;;9.37;50.15
64602;BME280;68371;42.630;23.192;2024-03-23T08:52:07;92245.41;;;9.36;49.69
64602;BME280;68371;42.630;23.192;2024-03-23T08:54:33;92239.84;;;9.78;49.63
64602;BME280;68371;42.630;23.192;2024-03-23T08:57:00;92247.91;;;9.85;48.77
64602;BME280;68371;42.630;23.192;2024-03-23T08:59:27;92245.28;;;9.85;47.49
64602;BME280;68371;42.630;23.192;2024-03-23T09:01:54;92245.53;;;10.08;46.99
64602;BME280;68371;42.630;23.192;2024-03-23T09:04:20;92236.56;;;10.09;47.47
64602;BME280;68371;42.630;23.192;2024-03-23T09:06:47;92238.69;;;10.19;46.34
64602;BME280;68371;42.630;23.192;2024-03-23T09:09:13;92242.31;;;10.43;45.88
64602;BME280;68371;42.630;23.192;2024-03-23T09:11:39;92238.59;;;10.44;45.40
64602;BME280;68371;42.630;23.192;2024-03-23T09:14:06;92177.63;;;10.07;44.87
64602;BME280;68371;42.630;23.192;2024-03-23T09:16:34;92214.19;;;10.43;45.56
64602;BME280;68371;42.630;23.192;2024-03-23T09:19:00;92232.50;;;10.72;43.93
64602;BME280;68371;42.630;23.192;2024-03-23T09:21:27;92225.75;;;10.55;43.47
64602;BME280;68371;42.630;23.192;2024-03-23T09:23:52;92215.91;;;10.52;43.18
64602;BME280;68371;42.630;23.192;2024-03-23T09:26:19;92217.50;;;10.88;44.14
64602;BME280;68371;42.630;23.192;2024-03-23T09:28:48;92218.34;;;10.92;41.91
64602;BME280;68371;42.630;23.192;2024-03-23T09:31:14;92208.56;;;11.09;40.78
64602;BME280;68371;42.630;23.192;2024-03-23T09:33:42;92193.06;;;11.03;40.86
64602;BME280;68371;42.630;23.192;2024-03-23T09:36:09;92201.56;;;11.32;40.47
64602;BME280;68371;42.630;23.192;2024-03-23T09:38:35;92197.34;;;11.28;41.60
64602;BME280;68371;42.630;23.192;2024-03-23T09:41:07;92201.53;;;11.48;40.54
64602;BME280;68371;42.630;23.192;2024-03-23T09:43:34;92198.56;;;11.50;40.34
64602;BME280;68371;42.630;23.192;2024-03-23T09:46:02;92189.75;;;11.61;43.64
64602;BME280;68371;42.630;23.192;2024-03-23T09:48:28;92192.53;;;11.69;37.10
64602;BME280;68371;42.630;23.192;2024-03-23T09:50:56;92186.56;;;11.72;35.66
64602;BME280;68371;42.630;23.192;2024-03-23T09:53:22;92186.78;;;11.82;36.32
64602;BME280;68371;42.630;23.192;2024-03-23T09:55:49;92178.91;;;11.82;36.99
64602;BME280;68371;42.630;23.192;2024-03-23T09:58:16;92173.84;;;11.93;37.09
64602;BME280;68371;42.630;23.192;2024-03-23T10:00:43;92169.81;;;11.99;37.96
64602;BME280;68371;42.630;23.192;2024-03-23T10:03:09;92167.78;;;12.12;38.83
64602;BME280;68371;42.630;23.192;2024-03-23T10:05:36;92165.19;;;12.35;37.63
64602;BME280;68371;42.630;23.192;2024-03-23T10:08:17;92161.84;;;12.38;39.28
64602;BME280;68371;42.630;23.192;2024-03-23T10:10:45;92158.97;;;12.47;38.71
64602;BME280;68371;42.630;23.192;2024-03-23T10:13:11;92157.00;;;12.67;36.79
64602;BME280;68371;42.630;23.192;2024-03-23T10:15:39;92147.94;;;12.65;38.75
64602;BME280;68371;42.630;23.192;2024-03-23T10:18:17;92150.38;;;12.77;38.67
64602;BME280;68371;42.630;23.192;2024-03-23T10:20:50;92141.78;;;12.80;38.48
64602;BME280;68371;42.630;23.192;2024-03-23T10:23:17;92147.25;;;12.94;36.20
64602;BME280;68371;42.630;23.192;2024-03-23T10:25:44;92147.47;;;12.82;38.26
64602;BME280;68371;42.630;23.192;2024-03-23T10:28:11;92136.97;;;12.86;37.86
64602;BME280;68371;42.630;23.192;2024-03-23T10:30:38;92145.03;;;12.96;36.38
64602;BME280;68371;42.630;23.192;2024-03-23T10:33:07;92131.78;;;12.93;36.42
64602;BME280;68371;42.630;23.192;2024-03-23T10:35:34;92124.22;;;13.18;38.40
64602;BME280;68371;42.630;23.192;2024-03-23T10:38:00;92125.47;;;13.28;39.40
64602;BME280;68371;42.630;23.192;2024-03-23T10:40:29;92119.69;;;13.45;37.90
64602;BME280;68371;42.630;23.192;2024-03-23T10:42:57;92123.72;;;13.69;36.57
64602;BME280;68371;42.630;23.192;2024-03-23T10:45:25;92122.84;;;13.58;36.63
64602;BME280;68371;42.630;23.192;2024-03-23T10:47:51;92120.28;;;13.65;34.72
64602;BME280;68371;42.630;23.192;2024-03-23T10:50:18;92111.63;;;13.65;34.13
64602;BME280;68371;42.630;23.192;2024-03-23T10:52:47;92106.06;;;13.73;35.43
64602;BME280;68371;42.630;23.192;2024-03-23T10:55:16;92105.31;;;13.73;36.79
64602;BME280;68371;42.630;23.192;2024-03-23T10:57:47;92102.47;;;13.92;34.85
64602;BME280;68371;42.630;23.192;2024-03-23T11:00:15;92096.06;;;13.93;35.34
64602;BME280;68371;42.630;23.192;2024-03-23T11:02:41;92080.63;;;13.99;35.38
64602;BME280;68371;42.630;23.192;2024-03-23T11:05:29;92078.19;;;14.20;35.25
64602;BME280;68371;42.630;23.192;2024-03-23T11:07:55;92078.81;;;14.51;36.51
64602;BME280;68371;42.630;23.192;2024-03-23T11:10:26;92067.59;;;14.65;35.24
64602;BME280;68371;42.630;23.192;2024-03-23T11:12:53;92068.44;;;14.76;36.15
64602;BME280;68371;42.630;23.192;2024-03-23T11:15:20;92053.44;;;14.95;31.99
64602;BME280;68371;42.630;23.192;2024-03-23T11:18:04;92049.72;;;15.10;32.87
64602;BME280;68371;42.630;23.192;2024-03-23T11:20:32;92049.66;;;14.99;31.26
64602;BME280;68371;42.630;23.192;2024-03-23T11:22:58;92051.13;;;14.90;32.35
64602;BME280;68371;42.630;23.192;2024-03-23T11:25:26;92044.13;;;15.26;34.38
64602;BME280;68371;42.630;23.192;2024-03-23T11:27:54;92044.56;;;15.42;32.21
64602;BME280;68371;42.630;23.192;2024-03-23T11:30:23;92037.06;;;15.70;35.61
64602;BME280;68371;42.630;23.192;2024-03-23T11:32:50;92028.06;;;15.89;32.60
64602;BME280;68371;42.630;23.192;2024-03-23T11:35:26;92020.50;;;15.98;32.30
64602;BME280;68371;42.630;23.192;2024-03-23T11:38:02;92032.59;;;16.02;27.97
64602;BME280;68371;42.630;23.192;2024-03-23T11:40:29;92028.44;;;15.94;28.74
64602;BME280;68371;42.630;23.192;2024-03-23T11:42:58;92023.16;;;15.98;30.54
64602;BME280;68371;42.630;23.192;2024-03-23T11:45:25;91999.69;;;16.11;30.23
64602;BME280;68371;42.630;23.192;2024-03-23T11:48:02;92006.88;;;16.25;27.46
64602;BME280;68371;42.630;23.192;2024-03-23T11:50:29;92008.00;;;16.27;28.15
64602;BME280;68371;42.630;23.192;2024-03-23T11:53:12;92000.06;;;16.31;31.22
64602;BME280;68371;42.630;23.192;2024-03-23T11:55:43;91978.06;;;16.34;26.29
64602;BME280;68371;42.630;23.192;2024-03-23T11:58:12;91986.78;;;16.41;29.06
64602;BME280;68371;42.630;23.192;2024-03-23T12:00:39;91985.19;;;16.80;29.02
64602;BME280;68371;42.630;23.192;2024-03-23T12:03:05;91981.81;;;16.65;27.32
64602;BME280;68371;42.630;23.192;2024-03-23T12:05:33;91977.66;;;16.68;27.09
64602;BME280;68371;42.630;23.192;2024-03-23T12:08:21;91965.47;;;16.95;26.93
64602;BME280;68371;42.630;23.192;2024-03-23T12:10:50;91960.13;;;17.02;26.02
64602;BME280;68371;42.630;23.192;2024-03-23T12:13:19;91960.94;;;16.78;25.88
64602;BME280;68371;42.630;23.192;2024-03-23T12:15:46;91959.00;;;17.07;25.79
64602;BME280;68371;42.630;23.192;2024-03-23T12:18:13;91958.19;;;17.10;25.87
64602;BME280;68371;42.630;23.192;2024-03-23T12:20:40;91954.22;;;17.43;26.62
64602;BME280;68371;42.630;23.192;2024-03-23T12:23:10;91941.53;;;17.76;27.94
64602;BME280;68371;42.630;23.192;2024-03-23T12:25:38;91955.97;;;17.72;26.20
64602;BME280;68371;42.630;23.192;2024-03-23T12:28:05;91949.75;;;17.96;28.81
64602;BME280;68371;42.630;23.192;2024-03-23T12:30:35;91945.00;;;18.18;27.61
64602;BME280;68371;42.630;23.192;2024-03-23T12:33:01;91935.63;;;18.48;27.04
64602;BME280;68371;42.630;23.192;2024-03-23T12:35:28;91941.22;;;18.57;25.94
64602;BME280;68371;42.630;23.192;2024-03-23T12:37:54;91932.34;;;18.33;24.59
64602;BME280;68371;42.630;23.192;2024-03-23T12:40:21;91931.19;;;18.72;24.36
64602;BME280;68371;42.630;23.192;2024-03-23T12:42:46;91924.84;;;18.97;24.36
64602;BME280;68371;42.630;23.192;2024-03-23T12:45:14;91928.19;;;19.05;23.09
64602;BME280;68371;42.630;23.192;2024-03-23T12:47:41;91926.31;;;19.01;23.65
64602;BME280;68371;42.630;23.192;2024-03-23T12:50:08;91915.09;;;19.17;23.83
64602;BME280;68371;42.630;23.192;2024-03-23T12:52:35;91918.22;;;19.39;23.68
64602;BME280;68371;42.630;23.192;2024-03-23T12:55:02;91913.31;;;19.65;23.33
64602;BME280;68371;42.630;23.192;2024-03-23T12:57:28;91914.09;;;19.35;23.51
64602;BME280;68371;42.630;23.192;2024-03-23T12:59:55;91902.78;;;19.54;23.68
64602;BME280;68371;42.630;23.192;2024-03-23T13:02:21;91905.00;;;19.87;25.35
64602;BME280;68371;42.630;23.192;2024-03-23T13:04:51;91905.91;;;19.49;23.19
64602;BME280;68371;42.630;23.192;2024-03-23T13:07:17;91898.81;;;19.66;23.94
64602;BME280;68371;42.630;23.192;2024-03-23T13:09:44;91886.88;;;20.01;22.72
64602;BME280;68371;42.630;23.192;2024-03-23T13:12:11;91886.53;;;19.99;23.88
64602;BME280;68371;42.630;23.192;2024-03-23T13:14:38;91886.34;;;20.34;23.66
64602;BME280;68371;42.630;23.192;2024-03-23T13:17:04;91884.03;;;20.76;25.27
64602;BME280;68371;42.630;23.192;2024-03-23T13:19:31;91883.97;;;20.99;23.94
64602;BME280;68371;42.630;23.192;2024-03-23T13:21:59;91876.53;;;20.91;24.85
64602;BME280;68371;42.630;23.192;2024-03-23T13:24:27;91877.06;;;20.82;25.25
64602;BME280;68371;42.630;23.192;2024-03-23T13:26:54;91876.59;;;20.87;23.91
64602;BME280;68371;42.630;23.192;2024-03-23T13:29:21;91871.78;;;20.98;22.39
64602;BME280;68371;42.630;23.192;2024-03-23T13:31:48;91857.50;;;21.25;23.02
64602;BME280;68371;42.630;23.192;2024-03-23T13:34:16;91863.31;;;21.56;23.61
64602;BME280;68371;42.630;23.192;2024-03-23T13:36:42;91856.38;;;21.75;24.06
64602;BME280;68371;42.630;23.192;2024-03-23T13:39:10;91856.25;;;22.12;22.93
64602;BME280;68371;42.630;23.192;2024-03-23T13:41:38;91848.75;;;22.07;23.77
64602;BME280;68371;42.630;23.192;2024-03-23T13:44:05;91838.09;;;21.90;22.03
64602;BME280;68371;42.630;23.192;2024-03-23T13:46:33;91844.56;;;21.24;23.87
64602;BME280;68371;42.630;23.192;2024-03-23T13:49:00;91839.84;;;20.75;23.93